Time;durP1;ratioP1;P1;durP2;ratioP2;P2;SDS_P1;SDS_P2;PMS_P1;PMS_P2;Temp;Humidity;BMP_temperature;BMP_pressure;BME280_temperature;BME280_humidity;BME280_pressure;Samples;Min_cycle;Max_cycle;Signal;HPM_P1;HPM_P2
2022/08/22 00:02:35;;;;;;;10.80;4.78;;;;;;;15.08;90.88;101598.84;5039113;28;20021;-72
2022/08/22 00:05:35;;;;;;;10.07;4.38;;;;;;;15.20;90.76;101622.22;5038935;28;20487;-72
2022/08/22 00:08:07;;;;;;;7.95;4.07;;;;;;;15.23;90.64;101615.16;5039135;28;20025;-78
2022/08/22 00:10:42;;;;;;;8.27;4.15;;;;;;;15.17;91.38;101626.81;5039063;28;20404;-73
2022/08/22 00:13:24;;;;;;;9.10;4.55;;;;;;;15.18;91.18;101621.50;5039111;28;20041;-81
2022/08/22 00:16:07;;;;;;;8.80;4.00;;;;;;;15.20;91.21;101622.22;5042604;28;20545;-74
2022/08/22 00:18:51;;;;;;;11.70;5.22;;;;;;;15.21;91.03;101620.47;5039157;28;20389;-72
2022/08/22 00:21:31;;;;;;;8.88;4.47;;;;;;;15.08;91.24;101602.28;5021157;28;20029;-71
2022/08/22 00:24:23;;;;;;;10.10;5.45;;;;;;;15.19;91.20;101622.34;5039046;28;20021;-72
2022/08/22 00:27:00;;;;;;;11.13;5.05;;;;;;;15.13;91.51;101615.78;5039105;28;20148;-72
2022/08/22 00:29:50;;;;;;;15.35;5.90;;;;;;;15.16;91.27;101609.56;5038928;28;20052;-79
2022/08/22 00:32:26;;;;;;;11.48;5.38;;;;;;;15.21;91.89;101617.84;5020784;28;20025;-81
2022/08/22 00:35:04;;;;;;;12.38;4.97;;;;;;;15.21;91.86;101628.25;5038816;28;20075;-73
2022/08/22 00:37:35;;;;;;;11.45;5.60;;;;;;;15.17;92.46;101624.22;5038774;28;20025;-74
2022/08/22 00:40:39;;;;;;;11.18;5.13;;;;;;;15.20;92.34;101621.41;5038972;28;20057;-76
2022/08/22 00:43:26;;;;;;;10.07;5.60;;;;;;;15.14;92.64;101621.81;5039036;28;20029;-76
2022/08/22 00:46:03;;;;;;;13.85;5.22;;;;;;;15.15;92.62;101616.53;5038760;28;20153;-74
2022/08/22 00:48:50;;;;;;;10.45;5.30;;;;;;;15.13;92.79;101615.78;5038477;28;20061;-74
2022/08/22 00:51:40;;;;;;;11.85;5.72;;;;;;;15.11;93.35;101622.03;5038590;28;20040;-73
2022/08/22 00:54:14;;;;;;;10.73;5.95;;;;;;;15.13;93.65;101626.19;5038959;28;20022;-82
2022/08/22 00:56:46;;;;;;;11.13;6.13;;;;;;;15.13;93.66;101622.75;5038695;28;20025;-72
2022/08/22 00:59:23;;;;;;;;;;;;;;;15.24;91.69;101624.59;5039097;28;20037;-72
2022/08/22 01:02:13;;;;;;;13.05;5.82;;;;;;;15.06;93.52;101608.53;5038336;28;19951;-74
2022/08/22 01:04:47;;;;;;;12.95;6.60;;;;;;;15.22;93.29;101629.94;5037807;28;20026;-72
2022/08/22 01:07:40;;;;;;;11.75;6.68;;;;;;;15.21;93.47;101621.28;5034922;28;20021;-72
2022/08/22 01:10:27;;;;;;;12.93;6.85;;;;;;;15.23;93.44;101615.97;5035216;28;20029;-79
2022/08/22 01:13:02;;;;;;;15.70;7.35;;;;;;;15.20;93.62;101614.44;5035396;28;20047;-73
2022/08/22 01:15:32;;;;;;;12.90;6.75;;;;;;;15.17;93.87;101617.25;5035297;28;20036;-72
2022/08/22 01:18:24;;;;;;;14.90;6.28;;;;;;;15.20;93.40;101616.19;5035393;28;20056;-79
2022/08/22 01:21:27;;;;;;;15.77;6.22;;;;;;;15.20;93.70;101618.81;5030930;28;20048;-72
2022/08/22 01:24:31;;;;;;;13.00;6.00;;;;;;;15.17;93.53;101612.06;5035258;28;20022;-76
2022/08/22 01:27:06;;;;;;;11.55;5.90;;;;;;;15.16;94.57;101615.59;5035030;28;20416;-73
2022/08/22 01:30:00;;;;;;;11.27;6.65;;;;;;;15.18;94.34;101613.72;5034875;28;20041;-72
2022/08/22 01:32:50;;;;;;;11.25;6.75;;;;;;;15.16;94.88;101613.00;5034908;28;20021;-72
2022/08/22 01:35:35;;;;;;;10.10;6.13;;;;;;;15.12;94.58;101605.50;5034704;28;20029;-71
2022/08/22 01:38:22;;;;;;;10.45;6.22;;;;;;;15.19;94.81;101615.38;5035010;28;20068;-75
2022/08/22 01:40:57;;;;;;;11.65;6.60;;;;;;;15.15;95.05;101610.50;5034984;28;20063;-76
2022/08/22 01:43:47;;;;;;;10.73;6.15;;;;;;;15.16;94.76;101615.59;5034849;28;20052;-72
2022/08/22 01:46:27;;;;;;;13.55;6.38;;;;;;;15.13;95.04;101612.34;5034882;28;20108;-72
2022/08/22 01:49:28;;;;;;;13.00;7.63;;;;;;;15.16;94.69;101606.97;5034835;28;20083;-74
2022/08/22 01:52:05;;;;;;;13.52;7.97;;;;;;;15.16;95.02;101613.00;4954442;29;20054;-78
2022/08/22 01:54:53;;;;;;;13.52;6.70;;;;;;;15.17;94.90;101616.41;4954479;29;20530;-72
2022/08/22 01:57:20;;;;;;;10.10;6.35;;;;;;;15.06;95.11;101596.34;4954285;29;20043;-72
2022/08/22 01:59:51;;;;;;;10.85;6.25;;;;;;;15.10;95.35;101609.97;4954419;29;20518;-72
2022/08/22 02:02:46;;;;;;;14.23;6.30;;;;;;;15.09;95.61;101603.94;4954385;29;20066;-72
2022/08/22 02:05:36;;;;;;;10.65;6.53;;;;;;;15.12;94.96;101608.09;4954299;29;20035;-72
2022/08/22 02:08:21;;;;;;;10.18;6.10;;;;;;;15.12;95.17;101603.72;4953992;29;20475;-75
2022/08/22 02:11:03;;;;;;;12.27;6.97;;;;;;;14.96;95.42;101578.91;4953892;29;20131;-72
2022/08/22 02:13:50;;;;;;;12.88;8.10;;;;;;;15.10;95.23;101608.19;4954237;29;20039;-79
2022/08/22 02:16:36;;;;;;;12.15;7.03;;;;;;;15.05;95.61;101594.69;4953757;28;20491;-79
2022/08/22 02:19:26;;;;;;;13.00;7.43;;;;;;;15.07;95.75;101608.44;4954001;29;20121;-78
2022/08/22 02:22:16;;;;;;;14.40;7.45;;;;;;;15.07;95.83;101603.22;4953440;29;20078;-78
2022/08/22 02:24:49;;;;;;;13.00;7.32;;;;;;;15.07;95.98;101605.00;4953761;29;20085;-77
2022/08/22 02:27:59;;;;;;;16.35;8.07;;;;;;;15.08;95.55;101604.88;4953855;29;20541;-77
2022/08/22 02:30:39;;;;;;;13.07;7.32;;;;;;;15.05;95.89;101602.50;4934675;29;20146;-72
2022/08/22 02:33:11;;;;;;;16.67;8.45;;;;;;;15.07;95.57;101611.03;4934903;29;20040;-77
2022/08/22 02:35:47;;;;;;;14.88;8.48;;;;;;;15.06;95.95;101604.16;4934425;29;20047;-78
2022/08/22 02:38:46;;;;;;;15.65;8.85;;;;;;;15.12;95.49;101605.50;4934472;29;20114;-73
2022/08/22 02:41:27;;;;;;;15.20;8.32;;;;;;;15.16;95.55;101593.94;4934460;29;20555;-76
2022/08/22 02:44:01;;;;;;;14.17;8.40;;;;;;;15.13;95.90;101600.16;4934582;29;20039;-72
2022/08/22 02:46:48;;;;;;;17.05;8.68;;;;;;;15.12;95.82;101593.31;4934482;29;20589;-81
2022/08/22 02:49:30;;;;;;;14.75;8.82;;;;;;;15.09;96.28;101590.09;4934288;29;20058;-73
2022/08/22 02:52:15;;;;;;;15.57;8.73;;;;;;;14.81;96.45;101547.81;4934066;29;20059;-74
2022/08/22 02:54:50;;;;;;;15.65;8.32;;;;;;;15.06;96.48;101593.75;4934026;29;20148;-73
2022/08/22 02:57:25;;;;;;;16.92;8.77;;;;;;;15.01;96.25;101588.03;4934040;29;20035;-72
2022/08/22 03:00:12;;;;;;;16.40;9.88;;;;;;;15.05;96.50;101593.88;4934042;29;20032;-72
2022/08/22 03:02:56;;;;;;;16.55;9.30;;;;;;;15.01;96.64;101589.81;4934167;29;20131;-73
2022/08/22 03:05:36;;;;;;;16.60;9.50;;;;;;;15.02;97.00;101589.69;4933945;29;20035;-72
2022/08/22 03:08:11;;;;;;;17.40;9.38;;;;;;;15.01;96.98;101589.81;5008862;28;20045;-72
2022/08/22 03:10:53;;;;;;;15.98;8.63;;;;;;;14.99;96.95;101589.91;5033273;28;20046;-73
2022/08/22 03:13:36;;;;;;;15.00;9.13;;;;;;;14.98;97.11;101577.84;5033201;28;20017;-72
2022/08/22 03:16:25;;;;;;;17.30;9.77;;;;;;;15.04;97.10;101594.78;5032976;28;20061;-73
2022/08/22 03:19:09;;;;;;;13.93;10.18;;;;;;;14.96;96.97;101586.69;5033046;28;20022;-72
2022/08/22 03:21:52;;;;;;;15.63;10.48;;;;;;;15.01;96.81;101587.19;5032811;28;20079;-72
2022/08/22 03:24:30;;;;;;;15.63;9.68;;;;;;;15.01;97.29;101584.59;5032930;28;20483;-84
2022/08/22 03:27:09;;;;;;;17.23;10.10;;;;;;;14.98;97.24;101580.44;5032869;28;20032;-84
2022/08/22 03:29:39;;;;;;;17.95;10.48;;;;;;;14.97;97.10;101570.97;5032586;28;20031;-78
2022/08/22 03:32:13;;;;;;;15.00;9.40;;;;;;;14.97;97.09;101573.59;5032968;28;20040;-72
2022/08/22 03:35:07;;;;;;;17.63;9.18;;;;;;;14.96;96.91;101573.69;5032973;28;20029;-83
2022/08/22 03:37:39;;;;;;;14.02;8.65;;;;;;;14.90;97.09;101572.34;5032596;28;20033;-83
2022/08/22 03:40:30;;;;;;;13.20;9.27;;;;;;;14.87;97.48;101565.59;5032563;28;20052;-74
2022/08/22 03:43:04;;;;;;;13.80;9.13;;;;;;;14.83;97.51;101566.72;5015173;28;20037;-72
2022/08/22 03:45:57;;;;;;;17.13;9.23;;;;;;;14.79;97.79;101562.69;5032633;28;20083;-83
2022/08/22 03:48:22;;;;;;;15.68;8.70;;;;;;;14.75;98.10;101565.59;5032631;28;20037;-83
2022/08/22 03:51:08;;;;;;;15.18;9.07;;;;;;;14.66;98.16;101561.88;5014492;28;20095;-77
2022/08/22 03:53:39;;;;;;;13.70;8.18;;;;;;;14.64;97.93;101563.72;5032656;28;20116;-83
2022/08/22 03:56:43;;;;;;;14.40;9.93;;;;;;;14.59;98.04;101564.06;5032551;28;20029;-72
2022/08/22 03:59:25;;;;;;;15.38;9.65;;;;;;;14.48;98.23;101561.34;5032668;28;20468;-72
2022/08/22 04:01:50;;;;;;;15.10;10.07;;;;;;;14.43;98.34;101565.97;5032720;28;20046;-72
2022/08/22 04:04:39;;;;;;;18.10;10.07;;;;;;;14.34;98.66;101570.03;5032295;28;20033;-75
2022/08/22 04:07:32;;;;;;;17.10;9.80;;;;;;;14.30;98.71;101565.16;5032249;28;20035;-72
2022/08/22 04:10:28;;;;;;;17.42;10.27;;;;;;;14.24;99.20;101562.94;5032238;28;20069;-72
2022/08/22 04:13:15;;;;;;;16.58;9.77;;;;;;;14.14;98.83;101561.91;5031799;28;20049;-82
2022/08/22 04:15:43;;;;;;;16.50;10.13;;;;;;;14.05;99.05;101568.53;5032556;28;20030;-83
2022/08/22 04:18:23;;;;;;;14.45;9.73;;;;;;;13.97;99.22;101570.81;5032452;28;20060;-72
2022/08/22 04:20:49;;;;;;;14.82;9.52;;;;;;;13.89;99.46;101567.88;5032557;28;20025;-84
2022/08/22 04:23:28;;;;;;;15.73;8.77;;;;;;;13.85;99.76;101575.00;5031916;28;20040;-82
2022/08/22 04:26:17;;;;;;;14.20;9.32;;;;;;;13.82;99.75;101569.19;5032476;28;20030;-73
2022/08/22 04:28:48;;;;;;;13.80;9.52;;;;;;;13.78;100.00;101568.59;5021388;28;20435;-72
2022/08/22 04:31:22;;;;;;;17.38;10.40;;;;;;;13.78;100.00;101569.41;5032120;28;20071;-74
2022/08/22 04:34:02;;;;;;;18.20;10.45;;;;;;;13.82;100.00;101572.63;5032196;28;20030;-72
2022/08/22 04:36:31;;;;;;;16.95;10.20;;;;;;;13.83;100.00;101571.69;5032226;28;20037;-72
2022/08/22 04:39:18;;;;;;;15.75;10.75;;;;;;;13.90;100.00;101577.34;5032071;28;20044;-73
2022/08/22 04:41:51;;;;;;;14.38;9.75;;;;;;;13.94;100.00;101571.81;5035990;28;20030;-73
2022/08/22 04:44:41;;;;;;;15.57;9.60;;;;;;;13.99;100.00;101574.13;5035858;28;20032;-75
2022/08/22 04:47:15;;;;;;;15.70;9.52;;;;;;;14.04;100.00;101577.25;5036028;28;20021;-75
2022/08/22 04:49:48;;;;;;;17.33;9.95;;;;;;;14.07;100.00;101577.91;5035893;28;20481;-84
2022/08/22 04:53:01;;;;;;;14.40;9.20;;;;;;;14.17;100.00;101582.50;5035538;28;20025;-72
2022/08/22 04:55:34;;;;;;;13.88;10.05;;;;;;;14.20;100.00;101580.50;4955574;29;20042;-84
2022/08/22 04:58:31;;;;;;;18.17;9.65;;;;;;;14.25;100.00;101588.81;4955350;29;20419;-74
2022/08/22 05:01:24;;;;;;;15.80;10.27;;;;;;;14.31;100.00;101596.22;4955356;29;20027;-82
2022/08/22 05:04:07;;;;;;;13.43;10.07;;;;;;;14.36;100.00;101590.72;4955272;28;20034;-72
2022/08/22 05:06:39;;;;;;;17.48;10.45;;;;;;;14.42;100.00;101587.72;4955449;29;20039;-73
2022/08/22 05:09:11;;;;;;;15.90;10.23;;;;;;;14.47;100.00;101584.84;4955194;29;20037;-75
2022/08/22 05:11:39;;;;;;;20.58;10.52;;;;;;;14.61;100.00;101598.56;4955211;29;20051;-76
2022/08/22 05:14:15;;;;;;;20.85;11.40;;;;;;;14.61;100.00;101584.72;4955458;29;20494;-85
2022/08/22 05:16:44;;;;;;;15.88;10.43;;;;;;;14.76;100.00;101595.88;4955362;28;20037;-89
2022/08/22 05:19:16;;;;;;;17.77;10.70;;;;;;;14.77;100.00;101587.97;4955485;29;20031;-85
2022/08/22 05:21:45;;;;;;;14.63;10.23;;;;;;;14.89;100.00;101597.50;4955268;29;20039;-76
2022/08/22 05:24:18;;;;;;;18.02;10.65;;;;;;;14.74;100.00;101554.34;4954850;29;20043;-84
2022/08/22 05:26:49;;;;;;;14.60;10.45;;;;;;;14.87;100.00;101569.97;4955108;29;20039;-78
2022/08/22 05:29:19;;;;;;;;;;;;;;;15.17;99.60;101606.84;4955300;29;20479;-91
2022/08/22 05:31:50;;;;;;;22.40;12.20;;;;;;;15.05;99.43;101575.66;5026392;28;20003;-81
2022/08/22 05:34:22;;;;;;;17.35;11.20;;;;;;;15.15;99.02;101581.88;5035036;28;20025;-92
2022/08/22 05:36:54;;;;;;;18.05;10.98;;;;;;;15.35;98.85;101609.94;5035054;28;20029;-93
2022/08/22 05:39:23;;;;;;;17.13;11.00;;;;;;;15.38;98.24;101607.09;5034741;28;20021;-81
2022/08/22 05:41:49;;;;;;;16.88;10.18;;;;;;;15.48;99.25;101617.69;5034855;28;20017;-77
2022/08/22 05:44:22;;;;;;;18.80;10.05;;;;;;;15.54;98.15;101609.47;5034889;28;20014;-77
2022/08/22 05:46:55;;;;;;;17.85;11.27;;;;;;;15.47;97.65;101585.63;5034759;28;20072;-82
2022/08/22 05:49:28;;;;;;;18.58;10.40;;;;;;;15.72;97.66;101613.34;5034759;28;20044;-76
2022/08/22 05:52:19;;;;;;;16.95;10.75;;;;;;;15.82;98.08;101610.09;5038630;28;20021;-74
2022/08/22 05:55:00;;;;;;;17.83;11.07;;;;;;;15.90;97.20;101611.19;5029600;28;20042;-89
2022/08/22 05:57:30;;;;;;;;;;;;;;;16.02;96.72;101614.66;5035069;28;20105;-91
2022/08/22 06:00:03;;;;;;;14.80;8.98;;;;;;;15.86;96.83;101583.72;5034264;28;19959;-88
2022/08/22 06:03:03;;;;;;;14.23;9.43;;;;;;;16.09;97.45;101600.25;5034434;28;20108;-85
2022/08/22 06:05:35;;;;;;;14.13;8.93;;;;;;;16.13;97.05;101593.06;5030110;28;20091;-80
2022/08/22 06:08:06;;;;;;;16.92;10.25;;;;;;;16.15;96.11;101593.78;5034371;28;20048;-88
2022/08/22 06:10:42;;;;;;;;;;;;;;;16.32;95.55;101609.81;5038345;28;20097;-84
2022/08/22 06:13:15;;;;;;;15.77;10.35;;;;;;;16.29;94.58;101609.19;5054670;28;19913;-89
2022/08/22 06:15:50;;;;;;;17.52;11.10;;;;;;;16.20;94.88;101586.44;5054160;28;20387;-77
2022/08/22 06:18:21;;;;;;;23.98;12.65;;;;;;;16.25;93.77;101584.31;5053929;28;20036;-80
2022/08/22 06:20:51;;;;;;;19.98;12.00;;;;;;;16.45;93.35;101612.34;5053835;28;20039;-75
2022/08/22 06:23:25;;;;;;;19.15;12.38;;;;;;;16.24;93.04;101560.03;5035834;28;20537;-79
2022/08/22 06:25:53;;;;;;;15.20;8.38;;;;;;;16.80;92.50;101608.84;5053715;28;20055;-81
2022/08/22 06:28:26;;;;;;;14.45;8.88;;;;;;;17.02;91.52;101614.09;5053790;28;20090;-83
2022/08/22 06:30:53;;;;;;;18.85;11.30;;;;;;;17.17;90.74;101617.25;5053867;28;20029;-77
2022/08/22 06:33:26;;;;;;;17.58;10.70;;;;;;;17.33;90.01;101617.72;5053758;28;20029;-78
2022/08/22 06:39:09;;;;;;;18.95;10.90;;;;;;;17.69;88.49;101624.44;5053998;28;20064;-76
2022/08/22 06:42:13;;;;;;;16.15;10.43;;;;;;;17.77;88.82;101626.44;5053818;28;20101;-76
2022/08/22 06:44:41;;;;;;;17.75;11.98;;;;;;;17.82;88.23;101631.31;4953382;29;20077;-76
2022/08/22 06:47:15;;;;;;;20.00;11.10;;;;;;;18.01;86.76;101626.25;4953472;29;20388;-76
2022/08/22 06:49:43;;;;;;;15.68;10.23;;;;;;;18.04;86.15;101626.00;4953318;29;20043;-74
2022/08/22 06:52:13;;;;;;;21.55;10.80;;;;;;;18.11;85.39;101611.47;4953170;29;20031;-77
2022/08/22 06:54:45;;;;;;;14.93;10.40;;;;;;;18.22;85.34;101621.88;4952753;29;20050;-73
2022/08/22 06:57:30;;;;;;;21.00;11.73;;;;;;;18.25;85.64;101633.84;4953359;29;20031;-90
2022/08/22 06:59:57;;;;;;;20.23;12.93;;;;;;;18.26;84.82;101630.28;4953185;29;20046;-73
2022/08/22 07:02:29;;;;;;;20.75;12.13;;;;;;;18.46;83.90;101636.47;4953079;28;20042;-74
2022/08/22 07:04:55;;;;;;;20.88;11.88;;;;;;;18.34;83.10;101618.22;4952351;29;20474;-76
2022/08/22 07:07:23;;;;;;;19.65;11.57;;;;;;;18.60;82.25;101644.00;4952525;29;20122;-77
2022/08/22 07:09:54;;;;;;;19.98;11.45;;;;;;;18.43;82.39;101613.19;4952424;29;20039;-77
2022/08/22 07:12:24;;;;;;;22.63;13.25;;;;;;;18.59;82.26;101652.81;4952822;29;20047;-78
2022/08/22 07:14:53;;;;;;;17.58;10.88;;;;;;;18.58;82.10;101633.69;4952888;29;20046;-78
2022/08/22 07:17:29;;;;;;;18.85;12.55;;;;;;;18.72;81.67;101647.41;4952804;29;20078;-83
2022/08/22 07:20:15;;;;;;;20.42;12.40;;;;;;;18.70;81.90;101644.91;4963240;28;20509;-75
2022/08/22 07:23:10;;;;;;;21.15;13.02;;;;;;;18.61;81.88;101615.09;5053072;28;20112;-77
2022/08/22 07:25:51;;;;;;;20.90;11.48;;;;;;;18.91;80.96;101642.25;5051696;28;20037;-77
2022/08/22 07:28:24;;;;;;;21.10;13.77;;;;;;;18.88;79.92;101647.78;5052521;28;20047;-83
2022/08/22 07:30:58;;;;;;;20.15;11.75;;;;;;;18.97;80.80;101636.50;5052832;28;20029;-77
2022/08/22 07:33:42;;;;;;;21.67;14.38;;;;;;;18.91;80.71;101624.78;5052519;28;20223;-75
2022/08/22 07:36:34;;;;;;;22.73;11.25;;;;;;;19.18;80.06;101642.53;5052955;28;20127;-73
2022/08/22 07:39:28;;;;;;;25.85;14.55;;;;;;;19.17;79.48;101637.38;5052799;28;20044;-77
2022/08/22 07:42:05;;;;;;;18.50;11.07;;;;;;;19.28;79.11;101628.63;5052462;28;20483;-77
2022/08/22 07:45:05;;;;;;;22.80;14.15;;;;;;;18.92;79.61;101558.38;5034655;28;20389;-77
2022/08/22 07:47:38;;;;;;;20.75;14.82;;;;;;;19.37;78.87;101599.84;5052212;28;20101;-77
2022/08/22 07:50:07;;;;;;;21.00;12.73;;;;;;;19.60;77.90;101615.34;5052485;28;20480;-79
2022/08/22 07:52:41;;;;;;;22.40;13.45;;;;;;;19.70;77.95;101613.56;5052719;28;20033;-80
2022/08/22 07:55:21;;;;;;;19.50;13.88;;;;;;;20.13;77.25;101620.19;5052355;28;20033;-78
2022/08/22 07:57:54;;;;;;;24.63;16.33;;;;;;;20.36;75.15;101621.56;5052125;28;20025;-76
2022/08/22 08:00:22;;;;;;;18.98;13.98;;;;;;;20.63;74.55;101619.00;5052208;28;20025;-75
2022/08/22 08:02:55;;;;;;;23.00;15.52;;;;;;;20.86;73.49;101624.75;5052124;28;20142;-77
2022/08/22 08:05:22;;;;;;;22.58;15.30;;;;;;;21.06;72.46;101617.63;5052240;28;20031;-75
2022/08/22 08:07:51;;;;;;;24.05;13.02;;;;;;;21.15;71.64;101608.03;5052174;28;20047;-75
2022/08/22 08:10:33;;;;;;;21.08;13.68;;;;;;;21.24;72.45;101616.81;5033935;28;20456;-76
2022/08/22 08:13:03;;;;;;;22.85;15.02;;;;;;;21.20;70.39;101616.28;5052241;28;20476;-76
2022/08/22 08:15:31;;;;;;;20.75;14.82;;;;;;;21.12;71.71;101608.31;5054139;28;20025;-78
2022/08/22 08:18:02;;;;;;;20.60;13.43;;;;;;;21.00;71.77;101593.72;5056274;28;20086;-75
2022/08/22 08:20:29;;;;;;;21.67;13.75;;;;;;;21.07;72.05;101605.31;5056127;28;20075;-79
2022/08/22 08:22:57;;;;;;;26.08;14.05;;;;;;;21.09;73.31;101604.19;5055670;28;20032;-76
2022/08/22 08:25:26;;;;;;;23.10;15.15;;;;;;;21.12;72.77;101596.00;5055271;28;20029;-75
2022/08/22 08:30:42;;;;;;;24.52;16.83;;;;;;;21.06;73.87;101591.34;5056143;28;20511;-75
2022/08/22 08:33:13;;;;;;;22.73;16.73;;;;;;;21.01;73.28;101595.38;5055841;28;20087;-75
2022/08/22 08:35:41;;;;;;;20.02;13.02;;;;;;;21.15;73.08;101589.66;5055801;28;20043;-71
2022/08/22 08:38:18;;;;;;;24.25;14.65;;;;;;;21.23;73.21;101583.66;5055950;28;20033;-74
2022/08/22 08:41:20;;;;;;;25.88;16.00;;;;;;;21.41;73.14;101597.66;5055831;28;20029;-75
2022/08/22 08:44:07;;;;;;;24.73;16.55;;;;;;;21.52;71.36;101592.19;5055563;28;20028;-75
2022/08/22 08:47:05;;;;;;;23.95;16.10;;;;;;;21.66;71.48;101591.69;5055563;28;20491;-74
2022/08/22 08:49:43;;;;;;;23.70;14.75;;;;;;;21.74;72.17;101599.66;5055428;28;20476;-74
2022/08/22 08:52:17;;;;;;;18.15;10.27;;;;;;;21.90;65.83;101603.41;5055617;28;20098;-74
2022/08/22 08:55:01;;;;;;;17.77;10.35;;;;;;;22.25;65.79;101600.75;5055812;28;20112;-74
2022/08/22 08:57:41;;;;;;;17.13;11.05;;;;;;;22.75;65.99;101586.91;5055269;28;20028;-76
2022/08/22 09:00:15;;;;;;;17.67;9.35;;;;;;;23.12;59.94;101599.75;5055709;28;20037;-76
2022/08/22 09:02:56;;;;;;;17.90;9.82;;;;;;;23.30;59.83;101590.88;5055491;28;20035;-74
2022/08/22 09:05:49;;;;;;;18.88;10.02;;;;;;;23.38;59.83;101591.72;5055399;28;20037;-72
2022/08/22 09:08:59;;;;;;;13.57;7.78;;;;;;;23.49;59.16;101580.06;5055370;28;20087;-77
2022/08/22 09:11:56;;;;;;;17.92;9.00;;;;;;;23.59;58.20;101579.94;5050700;28;20041;-75
2022/08/22 09:14:29;;;;;;;15.38;8.40;;;;;;;23.67;57.62;101582.59;5055542;28;20021;-75
2022/08/22 09:16:57;;;;;;;15.25;8.52;;;;;;;23.80;56.89;101577.66;5034926;28;20391;-74
2022/08/22 09:19:42;;;;;;;14.73;8.10;;;;;;;24.01;54.56;101577.97;5035118;28;20029;-75
2022/08/22 09:22:10;;;;;;;12.20;7.00;;;;;;;23.93;51.86;101571.88;5035082;28;20485;-73
2022/08/22 09:24:41;;;;;;;16.77;6.68;;;;;;;23.88;54.51;101574.19;5035186;28;20544;-75
2022/08/22 09:27:17;;;;;;;13.68;7.13;;;;;;;23.78;54.79;101558.50;5033787;28;20035;-74
2022/08/22 09:30:06;;;;;;;12.20;6.75;;;;;;;23.95;55.98;101577.81;5035066;28;20037;-73
2022/08/22 09:32:53;;;;;;;15.57;8.07;;;;;;;23.95;53.25;101575.19;5035254;28;20025;-76
2022/08/22 09:35:43;;;;;;;14.48;6.72;;;;;;;24.13;53.83;101572.34;5034844;28;20018;-74
2022/08/22 09:38:30;;;;;;;15.27;6.40;;;;;;;24.37;53.30;101574.16;5034861;28;20037;-75
2022/08/22 09:41:16;;;;;;;14.15;6.00;;;;;;;24.39;52.38;101559.81;5034602;28;20022;-75
2022/08/22 09:43:45;;;;;;;15.77;6.40;;;;;;;24.66;50.14;101576.22;5034753;28;20025;-79
2022/08/22 09:46:17;;;;;;;15.93;7.18;;;;;;;24.65;50.52;101578.03;5034747;28;20025;-74
2022/08/22 09:49:07;;;;;;;16.33;6.95;;;;;;;24.65;51.22;101567.47;5034414;28;20025;-74
2022/08/22 09:51:38;;;;;;;14.13;6.03;;;;;;;24.76;50.75;101571.53;5034714;28;20104;-77
2022/08/22 09:54:45;;;;;;;14.98;5.15;;;;;;;24.81;49.45;101574.50;5034471;28;20100;-73
2022/08/22 09:57:28;;;;;;;12.20;6.35;;;;;;;24.58;47.90;101575.25;4973603;28;20027;-75
2022/08/22 10:00:15;;;;;;;12.85;5.72;;;;;;;24.61;48.74;101566.16;4973770;28;20093;-74
2022/08/22 10:02:58;;;;;;;13.90;5.63;;;;;;;24.70;50.01;101573.06;4973564;28;20031;-77
2022/08/22 10:05:29;;;;;;;14.52;5.93;;;;;;;24.67;48.83;101567.28;4973588;28;20034;-78
2022/08/22 10:07:57;;;;;;;;;;;;;;;24.86;51.03;101565.06;4973630;28;20478;-78
2022/08/22 10:10:24;;;;;;;12.90;4.53;;;;;;;24.82;47.46;101569.06;4976510;28;20327;-76
2022/08/22 10:13:08;;;;;;;13.10;5.78;;;;;;;24.85;48.42;101555.50;4992538;28;20030;-78
2022/08/22 10:16:09;;;;;;;12.40;4.47;;;;;;;24.87;46.61;101548.22;4992717;28;20097;-80
2022/08/22 10:18:48;;;;;;;11.63;5.20;;;;;;;24.60;47.43;101543.41;4992809;28;20080;-75
2022/08/22 10:21:25;;;;;;;12.60;5.13;;;;;;;24.63;48.50;101552.78;4992886;28;20034;-75
2022/08/22 10:23:56;;;;;;;11.27;5.57;;;;;;;24.61;48.32;101550.31;4992706;28;20038;-75
2022/08/22 10:26:43;;;;;;;12.60;6.30;;;;;;;24.60;48.55;101548.69;4992657;28;20437;-81
2022/08/22 10:29:45;;;;;;;14.50;5.68;;;;;;;24.64;49.18;101547.34;5033795;28;20034;-79
2022/08/22 10:32:29;;;;;;;14.30;6.65;;;;;;;24.64;47.13;101547.34;5033937;28;20029;-74
2022/08/22 10:35:01;;;;;;;12.80;4.25;;;;;;;24.49;45.84;101520.84;5033937;28;20045;-74
2022/08/22 10:37:53;;;;;;;12.90;4.82;;;;;;;24.54;46.35;101515.03;5033328;28;20449;-82
2022/08/22 10:40:45;;;;;;;12.85;4.18;;;;;;;24.84;46.62;101535.34;5033731;28;20473;-81
2022/08/22 10:43:39;;;;;;;11.93;4.60;;;;;;;24.81;44.88;101525.16;5033582;28;20386;-72
2022/08/22 10:46:11;;;;;;;11.75;4.93;;;;;;;24.81;46.26;101543.63;5033731;28;20460;-75
2022/08/22 10:48:53;;;;;;;14.27;5.50;;;;;;;24.80;45.87;101536.72;5033509;28;20036;-74
2022/08/22 10:51:23;;;;;;;12.95;5.07;;;;;;;24.68;46.84;101529.31;5033413;28;20033;-81
2022/08/22 10:54:23;;;;;;;12.73;5.22;;;;;;;24.54;47.34;101530.88;5033638;28;20032;-80
2022/08/22 10:56:57;;;;;;;14.27;4.80;;;;;;;24.47;46.44;101524.63;5030189;28;20365;-81
2022/08/22 10:59:42;;;;;;;10.65;4.35;;;;;;;24.56;46.59;101531.50;5033288;28;20061;-75
2022/08/22 11:02:23;;;;;;;10.70;4.95;;;;;;;24.65;47.28;101533.13;5031918;28;20040;-76
2022/08/22 11:05:07;;;;;;;11.80;4.47;;;;;;;24.63;46.62;101529.84;5033931;28;20032;-80
2022/08/22 11:07:47;;;;;;;16.38;4.25;;;;;;;24.46;46.08;101528.25;5033449;28;20507;-75
2022/08/22 11:10:33;;;;;;;13.02;3.97;;;;;;;24.39;45.53;101511.47;5034966;28;20384;-75
2022/08/22 11:13:13;;;;;;;14.65;4.40;;;;;;;24.44;47.31;101509.13;5052733;28;20472;-81
2022/08/22 11:15:55;;;;;;;13.70;4.72;;;;;;;24.65;46.74;101516.47;5053232;28;20078;-80
2022/08/22 11:18:55;;;;;;;12.30;4.13;;;;;;;24.87;44.41;101520.97;5053099;28;20365;-83
2022/08/22 11:21:55;;;;;;;10.20;3.60;;;;;;;25.02;45.70;101529.84;5052984;28;20032;-93
2022/08/22 11:24:30;;;;;;;9.63;3.85;;;;;;;25.32;44.69;101520.22;4972120;28;20513;-83
2022/08/22 11:27:07;;;;;;;14.50;4.72;;;;;;;25.45;43.48;101499.28;4972316;28;20162;-77
2022/08/22 11:30:00;;;;;;;17.75;5.10;;;;;;;25.66;43.40;101521.59;4971888;28;20129;-78
2022/08/22 11:32:48;;;;;;;12.48;3.38;;;;;;;25.87;43.92;101513.88;4972102;28;20034;-90
2022/08/22 11:35:30;;;;;;;9.15;3.30;;;;;;;26.08;42.49;101501.75;4972442;28;20089;-91
2022/08/22 11:38:14;;;;;;;9.05;3.08;;;;;;;26.27;40.57;101509.13;4972001;28;20033;-81
2022/08/22 11:40:59;;;;;;;7.95;2.92;;;;;;;26.32;40.71;101522.63;4971944;28;20054;-76
2022/08/22 11:43:49;;;;;;;9.57;2.85;;;;;;;26.27;40.32;101509.13;4971786;28;20030;-76
2022/08/22 11:46:28;;;;;;;10.35;3.05;;;;;;;26.44;41.37;101507.94;4971997;28;20156;-76
2022/08/22 11:49:22;;;;;;;10.88;3.53;;;;;;;26.79;40.32;101505.53;4971322;28;20047;-77
2022/08/22 11:52:06;;;;;;;11.23;3.30;;;;;;;26.96;40.93;101509.59;4971650;28;20429;-76
2022/08/22 11:54:53;;;;;;;11.48;3.22;;;;;;;27.17;39.16;101502.72;4971793;28;20565;-78
2022/08/22 11:57:31;;;;;;;10.07;3.30;;;;;;;27.00;39.62;101505.56;4971752;28;20027;-78
2022/08/22 12:00:11;;;;;;;9.85;3.22;;;;;;;26.77;40.94;101507.56;4988416;28;20032;-77
2022/08/22 12:02:55;;;;;;;12.80;3.58;;;;;;;26.63;40.53;101506.56;5052612;28;20025;-77
2022/08/22 12:05:27;;;;;;;7.40;3.22;;;;;;;26.48;39.60;101503.94;5052420;28;20037;-76
2022/08/22 12:08:09;;;;;;;10.80;3.55;;;;;;;26.48;40.99;101503.13;5039771;28;20026;-75
2022/08/22 12:10:41;;;;;;;11.70;3.47;;;;;;;26.58;40.66;101503.66;5032838;28;20042;-76
2022/08/22 12:13:18;;;;;;;9.38;2.90;;;;;;;26.56;40.74;101501.19;5032430;28;20030;-78
2022/08/22 12:16:08;;;;;;;11.75;3.05;;;;;;;26.60;39.16;101504.28;5032298;28;20052;-77
2022/08/22 12:18:49;;;;;;;8.52;2.90;;;;;;;26.75;40.30;101509.56;5032024;28;20033;-81
2022/08/22 12:21:23;;;;;;;9.70;3.10;;;;;;;26.87;38.75;101503.59;5032434;28;20104;-74